Time;durP1;ratioP1;P1;durP2;ratioP2;P2;SDS_P1;SDS_P2;PMS_P1;PMS_P2;Temp;Humidity;BMP_temperature;BMP_pressure;BME280_temperature;BME280_humidity;BME280_pressure;Samples;Min_cycle;Max_cycle;Signal;HPM_P1;HPM_P2
2022/04/09 00:07:01;;;;;;;;;;;;;;;;;;;;;
2022/04/09 00:10:12;;;;;;;3.78;0.60;;;4.70;99.90;;;;;;4877025;29;20081;-87
2022/04/09 00:13:25;;;;;;;2.65;0.50;;;4.60;99.90;;;;;;4885455;29;20105;-86
2022/04/09 00:16:34;;;;;;;1.75;0.50;;;4.60;99.90;;;;;;4889893;29;20091;-83
2022/04/09 00:19:56;;;;;;;8.52;0.70;;;4.60;99.90;;;;;;4873038;29;20120;-86
2022/04/09 00:23:02;;;;;;;8.25;1.30;;;4.60;99.90;;;;;;4862219;29;20060;-86
2022/04/09 00:26:34;;;;;;;6.07;0.70;;;4.60;99.90;;;;;;4886744;29;20104;-82
2022/04/09 00:29:47;;;;;;;3.90;0.60;;;4.70;99.90;;;;;;4844705;29;20148;-84
2022/04/09 00:33:05;;;;;;;;;;;;;;;;;;;;;
2022/04/09 00:36:33;;;;;;;2.38;0.60;;;4.50;99.90;;;;;;4860938;29;20077;-86
2022/04/09 00:39:48;;;;;;;;;;;4.60;99.90;;;;;;4876552;29;20045;-90
2022/04/09 00:43:16;;;;;;;4.10;0.93;;;4.70;99.90;;;;;;4876814;29;19925;-86
2022/04/09 00:46:23;;;;;;;3.85;0.60;;;4.70;99.90;;;;;;4852559;29;20053;-91
2022/04/09 00:53:44;;;;;;;3.78;0.50;;;4.60;99.90;;;;;;4877861;29;20055;-87
2022/04/09 00:57:09;;;;;;;;;;;;;;;;;;;;;
2022/04/09 01:00:09;;;;;;;2.90;0.50;;;4.50;99.90;;;;;;4828275;29;20077;-86
2022/04/09 01:03:34;;;;;;;;;;;;;;;;;;;;;
2022/04/09 01:06:44;;;;;;;5.40;0.50;;;5.10;99.90;;;;;;4834307;29;20053;-88
2022/04/09 01:09:50;;;;;;;;;;;;;;;;;;;;;
2022/04/09 01:13:17;;;;;;;1.70;0.30;;;4.60;99.90;;;;;;4878524;29;20057;-88
2022/04/09 01:17:07;;;;;;;;;;;;;;;;;;;;;
2022/04/09 01:19:59;;;;;;;1.10;0.30;;;4.60;99.90;;;;;;4877721;29;20108;-89
2022/04/09 01:23:18;;;;;;;;;;;;;;;;;;;;;
2022/04/09 01:26:24;;;;;;;1.60;0.40;;;4.50;99.90;;;;;;4844922;29;20128;-90
2022/04/09 01:29:55;;;;;;;1.00;0.40;;;4.30;99.90;;;;;;4879455;29;20462;-89
2022/04/09 01:33:12;;;;;;;;;;;;;;;;;;;;;
2022/04/09 01:36:23;;;;;;;4.05;0.30;;;4.20;99.90;;;;;;4878797;29;20626;-86
2022/04/09 01:43:32;;;;;;;0.80;0.50;;;4.00;99.90;;;;;;4874436;29;20116;-87
2022/04/09 01:47:02;;;;;;;2.70;0.52;;;4.00;99.90;;;;;;4876696;29;20049;-89
2022/04/09 01:50:26;;;;;;;;;;;;;;;;;;;;;
2022/04/09 01:53:33;;;;;;;2.97;0.50;;;4.40;99.90;;;;;;4857728;29;20069;-87
2022/04/09 01:56:38;;;;;;;1.27;0.50;;;4.70;99.90;;;;;;4881287;29;20052;-85
2022/04/09 02:00:10;;;;;;;4.07;0.40;;;4.50;99.90;;;;;;4881583;29;20048;-87
2022/04/09 02:03:42;;;;;;;;;;;;;;;;;;;;;
2022/04/09 02:07:07;;;;;;;1.77;0.38;;;4.40;99.90;;;;;;4842182;29;20055;-90
2022/04/09 02:10:51;;;;;;;1.17;0.40;;;4.10;99.90;;;;;;4879591;29;20399;-87
2022/04/09 02:14:16;;;;;;;7.00;0.65;;;4.10;99.90;;;;;;4875455;29;20486;-87
2022/04/09 02:17:36;;;;;;;3.70;0.40;;;4.10;99.90;;;;;;4881050;29;20048;-89
2022/04/09 02:21:06;;;;;;;2.53;0.43;;;4.00;99.90;;;;;;4880039;29;20124;-88
2022/04/09 02:28:14;;;;;;;;;;;;;;;;;;;;;
2022/04/09 02:31:20;;;;;;;0.47;0.30;;;3.70;99.90;;;;;;4842405;29;20041;-89
2022/04/09 02:34:45;;;;;;;;;;;;;;;;;;;;;
2022/04/09 02:38:00;;;;;;;;;;;;;;;;;;;;;
2022/04/09 02:41:08;;;;;;;;;;;;;;;;;;;;;
2022/04/09 02:44:24;;;;;;;2.20;0.43;;;3.80;99.90;;;;;;4879615;29;20056;-90
2022/04/09 02:51:33;;;;;;;1.67;0.40;;;4.00;99.90;;;;;;4879426;29;20056;-90
2022/04/09 02:54:55;;;;;;;;;;;;;;;;;;;;;
2022/04/09 02:58:13;;;;;;;;;;;;;;;;;;;;;
2022/04/09 03:01:40;;;;;;;3.50;0.50;;;3.70;99.90;;;;;;4879709;29;20395;-89
2022/04/09 03:05:14;;;;;;;3.38;0.40;;;3.60;99.90;;;;;;4880079;29;20041;-90
2022/04/09 03:08:35;;;;;;;1.45;0.40;;;3.50;99.90;;;;;;4878063;29;20507;-91
2022/04/09 03:15:50;;;;;;;0.85;0.28;;;3.40;99.90;;;;;;4854712;29;20060;-89
2022/04/09 03:19:12;;;;;;;;;;;;;;;;;;;;;
2022/04/09 03:22:28;;;;;;;3.75;0.50;;;3.20;99.90;;;;;;4857637;29;20046;-90
2022/04/09 03:25:48;;;;;;;3.85;0.50;;;3.20;99.90;;;;;;4858960;29;20065;-88
2022/04/09 03:29:08;;;;;;;2.10;0.40;;;3.30;99.90;;;;;;4854210;29;20049;-91
2022/04/09 03:32:22;;;;;;;;;;;;;;;;;;;;;
2022/04/09 03:46:24;;;;;;;8.43;0.70;;;3.30;99.90;;;;;;4822807;29;20041;-90
2022/04/09 03:49:28;;;;;;;;;;;;;;;;;;;;;
2022/04/09 03:52:34;;;;;;;;;;;;;;;;;;;;;
2022/04/09 03:55:35;;;;;;;2.10;0.47;;;3.30;99.90;;;;;;4822413;29;20054;-91
2022/04/09 03:58:48;;;;;;;1.45;0.30;;;3.20;99.90;;;;;;4822689;29;20042;-90
2022/04/09 04:01:58;;;;;;;2.08;0.30;;;3.50;99.90;;;;;;4818705;29;20105;-91
2022/04/09 04:09:14;;;;;;;1.95;0.20;;;3.00;99.90;;;;;;4820557;29;20057;-86
2022/04/09 04:12:43;;;;;;;2.47;0.40;;;3.00;99.90;;;;;;4840435;29;20093;-92
2022/04/09 04:15:44;;;;;;;;;;;;;;;;;;;;;
2022/04/09 04:18:56;;;;;;;6.03;0.50;;;3.10;99.90;;;;;;4879290;29;19931;-92
2022/04/09 04:22:16;;;;;;;2.08;0.50;;;3.10;99.90;;;;;;4827795;29;20061;-92
2022/04/09 04:29:17;;;;;;;1.75;0.35;;;3.10;99.90;;;;;;4816899;29;20426;-91
2022/04/09 04:32:21;;;;;;;;;;;;;;;;;;;;;
2022/04/09 04:35:56;;;;;;;;;;;;;;;;;;;;;
2022/04/09 04:39:24;;;;;;;;;;;;;;;;;;;;;
2022/04/09 04:42:30;;;;;;;;;;;;;;;;;;;;;
2022/04/09 04:45:19;;;;;;;2.85;0.30;;;3.00;99.90;;;;;;4800880;29;20135;-87
2022/04/09 04:48:34;;;;;;;2.08;0.30;;;3.00;99.90;;;;;;4815075;29;20042;-91
2022/04/09 04:51:37;;;;;;;1.02;0.28;;;2.90;99.90;;;;;;4807458;29;20113;-89
2022/04/09 04:54:36;;;;;;;3.00;0.30;;;2.90;99.90;;;;;;4820576;29;20050;-91
2022/04/09 04:57:30;;;;;;;1.95;0.30;;;3.00;99.90;;;;;;4812849;29;20054;-85
2022/04/09 05:00:27;;;;;;;2.05;0.30;;;3.00;99.90;;;;;;4833936;29;20065;-89
2022/04/09 05:03:28;;;;;;;4.30;0.40;;;3.00;99.90;;;;;;4819160;29;20054;-89
2022/04/09 05:06:16;;;;;;;;;;;;;;;;;;;;;
2022/04/09 05:09:40;;;;;;;0.50;0.20;;;3.00;99.90;;;;;;4887336;29;19932;-87
2022/04/09 05:13:00;;;;;;;;;;;;;;;;;;;;;
2022/04/09 05:15:45;;;;;;;0.98;0.35;;;3.10;99.90;;;;;;4874875;29;20048;-90
2022/04/09 05:18:46;;;;;;;4.28;0.88;;;3.10;99.90;;;;;;4874479;29;20598;-89
2022/04/09 05:21:59;;;;;;;1.23;0.30;;;3.10;99.90;;;;;;4873736;29;20045;-92
2022/04/09 05:25:10;;;;;;;5.18;0.65;;;3.20;99.90;;;;;;4873745;29;20064;-85
2022/04/09 05:28:17;;;;;;;3.95;0.43;;;3.20;99.90;;;;;;4862268;29;20082;-88
2022/04/09 05:31:22;;;;;;;1.25;0.30;;;3.30;99.90;;;;;;4858752;29;20137;-90
2022/04/09 05:34:17;;;;;;;1.17;0.30;;;3.40;99.90;;;;;;4879217;29;20045;-91
2022/04/09 05:37:28;;;;;;;;;;;;;;;;;;;;;
2022/04/09 05:40:09;;;;;;;3.47;0.40;;;3.50;99.90;;;;;;4840355;29;20055;-90
2022/04/09 05:43:19;;;;;;;5.63;0.70;;;3.60;99.90;;;;;;4863437;29;20045;-91
2022/04/09 05:46:23;;;;;;;3.40;0.50;;;3.80;99.90;;;;;;4877199;29;20057;-91
2022/04/09 05:49:34;;;;;;;;;;;;;;;;;;;;;
2022/04/09 05:59:57;;;;;;;1.88;0.40;;;4.00;99.90;;;;;;4841492;29;20063;-90
2022/04/09 06:02:50;;;;;;;2.10;0.38;;;4.00;99.90;;;;;;4881589;29;20143;-89
2022/04/09 06:05:45;;;;;;;0.88;0.32;;;4.10;99.90;;;;;;4881012;29;20049;-90
2022/04/09 06:08:45;;;;;;;1.30;0.35;;;4.30;99.90;;;;;;4864442;29;20511;-90
2022/04/09 06:11:47;;;;;;;2.00;0.30;;;4.00;99.90;;;;;;4879813;29;20112;-88
2022/04/09 06:14:50;;;;;;;2.15;0.40;;;4.50;99.90;;;;;;4881494;29;20418;-89
2022/04/09 06:17:29;;;;;;;0.63;0.40;;;4.60;99.90;;;;;;4880776;29;20057;-87
2022/04/09 06:20:12;;;;;;;1.67;0.40;;;4.70;99.90;;;;;;4880696;29;20041;-86
2022/04/09 06:23:09;;;;;;;2.88;0.60;;;4.70;99.90;;;;;;4864513;29;20501;-91
2022/04/09 06:26:11;;;;;;;2.03;0.50;;;4.70;99.90;;;;;;4875714;29;20080;-90
2022/04/09 06:29:41;;;;;;;;;;;;;;;;;;;;;
2022/04/09 06:32:46;;;;;;;1.67;0.50;;;4.90;99.90;;;;;;4877460;29;20048;-93
2022/04/09 06:43:10;;;;;;;4.82;0.70;;;5.80;99.90;;;;;;4879969;29;20048;-90
2022/04/09 06:46:18;;;;;;;10.13;0.90;;;6.10;99.90;;;;;;4880700;29;20435;-91
2022/04/09 06:49:04;;;;;;;;;;;6.40;99.90;;;;;;4874178;29;20045;-88
2022/04/09 06:51:58;;;;;;;6.43;0.52;;;6.40;99.90;;;;;;4865195;29;19931;-90
2022/04/09 06:55:17;;;;;;;3.15;0.65;;;6.00;99.90;;;;;;4880209;29;20048;-90
2022/04/09 06:58:22;;;;;;;12.27;0.57;;;5.80;99.90;;;;;;4847590;29;20071;-88
2022/04/09 07:01:19;;;;;;;4.32;0.70;;;5.80;99.90;;;;;;4842335;29;20044;-90
2022/04/09 07:04:29;;;;;;;;;;;;;;;;;;;;;
2022/04/09 07:07:14;;;;;;;2.50;0.85;;;6.00;99.90;;;;;;4855139;29;20144;-89
2022/04/09 07:10:44;;;;;;;;;;;;;;;;;;;;;
2022/04/09 07:13:47;;;;;;;;;;;;;;;;;;;;;
2022/04/09 07:17:03;;;;;;;13.85;0.80;;;6.60;99.90;;;;;;4873276;29;20401;-85
2022/04/09 07:19:58;;;;;;;6.13;0.70;;;6.80;99.90;;;;;;4787426;29;20039;-85
2022/04/09 07:32:59;;;;;;;6.28;1.00;;;7.40;99.90;;;;;;4789203;29;20100;-85
2022/04/09 07:35:53;;;;;;;10.82;0.80;;;7.50;99.90;;;;;;4803583;29;20152;-85
2022/04/09 07:39:29;;;;;;;4.50;0.77;;;7.60;99.90;;;;;;4803718;29;20082;-85
2022/04/09 07:49:45;;;;;;;7.57;1.30;;;8.30;99.90;;;;;;4634014;30;20058;-86
2022/04/09 07:53:29;;;;;;;7.90;0.82;;;8.20;99.90;;;;;;4639332;30;20141;-86
2022/04/09 07:56:50;;;;;;;7.28;0.68;;;8.50;99.90;;;;;;4652877;30;20603;-84
2022/04/09 08:08:00;;;;;;;4.43;0.82;;;8.50;99.90;;;;;;5070326;23;20060;-85
2022/04/09 08:11:08;;;;;;;6.45;0.80;;;8.40;99.90;;;;;;4874331;29;20060;-85
2022/04/09 08:14:22;;;;;;;5.47;0.50;;;8.00;99.90;;;;;;4869341;29;20556;-86
2022/04/09 08:20:40;;;;;;;1.58;0.40;;;9.10;99.90;;;;;;4804487;29;20450;-85
2022/04/09 08:24:25;;;;;;;1.52;0.10;;;8.30;99.90;;;;;;4775449;29;20066;-89
2022/04/09 08:28:00;;;;;;;1.42;0.20;;;7.80;99.90;;;;;;4612794;31;20063;-86
2022/04/09 08:38:58;;;;;;;5.78;0.60;;;6.90;99.90;;;;;;2987009;27;20060;-87
2022/04/09 08:43:56;;;;;;;8.73;0.95;;;7.30;99.90;;;;;;4923165;23;20518;-85
2022/04/09 08:46:34;;;;;;;7.15;1.20;;;7.70;99.90;;;;;;4862232;29;20543;-85
2022/04/09 08:49:14;;;;;;;11.98;0.95;;;7.90;99.90;;;;;;4844776;29;20116;-87
2022/04/09 08:51:48;;;;;;;5.28;0.50;;;8.40;99.90;;;;;;4875852;29;20494;-84
2022/04/09 08:55:13;;;;;;;6.85;0.50;;;8.10;99.90;;;;;;4862512;29;20056;-86
2022/04/09 08:58:46;;;;;;;4.18;0.40;;;7.90;99.90;;;;;;4788768;29;20062;-86
2022/04/09 09:03:59;;;;;;;0.55;0.20;;;7.30;99.90;;;;;;4858015;29;20109;-84
2022/04/09 09:06:39;;;;;;;0.93;0.30;;;7.70;99.90;;;;;;4828437;29;20105;-86
2022/04/09 09:36:08;;;;;;;3.80;0.90;;;8.20;99.90;;;;;;5332678;23;20060;-86
2022/04/09 09:43:22;;;;;;;4.47;0.60;;;8.80;99.90;;;;;;4991742;23;20065;-86
2022/04/09 09:46:57;;;;;;;7.47;1.30;;;9.10;99.90;;;;;;4986512;23;20052;-84
2022/04/09 09:50:45;;;;;;;;;;;;;;;;;;;;;
2022/04/09 09:53:47;;;;;;;3.33;0.70;;;8.80;99.90;;;;;;4840785;29;20054;-84
2022/04/09 10:00:49;;;;;;;0.63;0.20;;;8.10;99.90;;;;;;4804426;29;20045;-84
2022/04/09 10:03:49;;;;;;;0.88;0.22;;;8.10;99.90;;;;;;4802540;29;20139;-82
2022/04/09 10:08:03;;;;;;;0.45;0.20;;;7.40;99.90;;;;;;4854093;23;20833;-85
2022/04/09 10:11:29;;;;;;;;;;;;;;;;;;;;;
2022/04/09 10:14:37;;;;;;;1.38;0.20;;;8.00;99.90;;;;;;4926657;29;20044;-83
2022/04/09 10:17:35;;;;;;;4.32;0.50;;;8.40;99.90;;;;;;4914305;29;20414;-86
2022/04/09 10:20:47;;;;;;;;;;;;;;;;;;;;;
2022/04/09 10:23:52;;;;;;;3.53;0.43;;;8.00;99.90;;;;;;4909706;29;20407;-84
2022/04/09 10:26:41;;;;;;;4.80;0.35;;;8.40;99.90;;;;;;4939027;29;20056;-84
2022/04/09 10:32:55;;;;;;;3.95;0.60;;;6.70;99.90;;;;;;5212014;23;20064;-87
2022/04/09 10:36:36;;;;;;;;;;;;;;;;;;;;;
2022/04/09 10:39:52;;;;;;;1.27;0.20;;;7.30;99.90;;;;;;4861565;29;20151;-83
2022/04/09 10:42:56;;;;;;;2.72;0.35;;;7.90;99.90;;;;;;4845419;29;20060;-85
2022/04/09 10:45:54;;;;;;;3.85;0.40;;;7.80;99.90;;;;;;4843876;29;20045;-84
2022/04/09 10:48:42;;;;;;;1.95;0.45;;;7.90;99.90;;;;;;4846834;29;20394;-83
2022/04/09 10:51:59;;;;;;;1.73;0.20;;;8.20;99.90;;;;;;4862204;29;20055;-82
2022/04/09 10:54:31;;;;;;;2.20;0.50;;;8.30;99.90;;;;;;4852510;29;20057;-82
2022/04/09 10:57:22;;;;;;;1.65;0.40;;;8.50;99.90;;;;;;4878094;29;20057;-82
2022/04/09 11:00:44;;;;;;;;;;;;;;;;;;;;;
2022/04/09 11:03:46;;;;;;;3.95;0.40;;;9.00;99.90;;;;;;4897085;29;20052;-83
2022/04/09 11:07:17;;;;;;;2.78;0.50;;;9.10;99.90;;;;;;4881092;29;20419;-81
2022/04/09 11:10:17;;;;;;;2.55;0.35;;;9.60;99.90;;;;;;4924379;28;20469;-83
2022/04/09 11:17:02;;;;;;;6.30;0.93;;;9.70;99.90;;;;;;4971296;28;20049;-83
2022/04/09 11:20:28;;;;;;;;;;;;;;;;;;;;;
2022/04/09 11:23:35;;;;;;;4.60;0.50;;;10.20;99.90;;;;;;4922456;29;20098;-84
2022/04/09 11:26:43;;;;;;;4.63;0.50;;;10.40;99.90;;;;;;4955943;28;20035;-82
2022/04/09 11:29:46;;;;;;;4.55;0.68;;;10.30;99.90;;;;;;4958171;28;20035;-83
2022/04/09 11:32:48;;;;;;;4.72;0.80;;;10.40;99.90;;;;;;4939667;29;20479;-84
2022/04/09 11:36:16;;;;;;;2.10;0.50;;;10.30;99.90;;;;;;4953950;29;20047;-86
2022/04/09 11:39:28;;;;;;;;;;;;;;;;;;;;;
2022/04/09 11:45:49;;;;;;;5.95;0.73;;;11.70;99.90;;;;;;4876870;29;20045;-84
2022/04/09 11:48:40;;;;;;;5.60;1.00;;;11.40;99.90;;;;;;4855125;29;20041;-84
2022/04/09 11:51:35;;;;;;;5.53;0.68;;;11.60;99.90;;;;;;4859554;29;20124;-83
2022/04/09 11:54:44;;;;;;;;;;;;;;;;;;;;;
2022/04/09 11:57:55;;;;;;;4.38;0.85;;;10.80;99.90;;;;;;4836631;23;20056;-84
2022/04/09 12:01:03;;;;;;;12.10;1.00;;;10.80;99.90;;;;;;4937549;29;20107;-85
2022/04/09 12:04:43;;;;;;;5.43;1.08;;;10.90;99.90;;;;;;4936458;29;20492;-85
2022/04/09 12:07:56;;;;;;;;;;;;;;;;;;;;;
2022/04/09 12:11:24;;;;;;;4.25;1.05;;;10.30;99.90;;;;;;4936193;29;20044;-83
2022/04/09 12:14:41;;;;;;;;;;;;;;;;;;;;;
2022/04/09 12:17:50;;;;;;;5.03;0.55;;;9.80;99.90;;;;;;4936048;29;20138;-84
2022/04/09 12:20:43;;;;;;;2.53;0.85;;;9.80;99.90;;;;;;4921866;29;20063;-85
2022/04/09 12:23:47;;;;;;;;;;;10.00;99.90;;;;;;4935771;29;20450;-85
2022/04/09 12:27:05;;;;;;;;;;;;;;;;;;;;;
2022/04/09 12:30:38;;;;;;;;;;;;;;;;;;;;;
2022/04/09 12:33:37;;;;;;;3.45;0.57;;;11.10;99.90;;;;;;4935881;29;20056;-85
2022/04/09 12:36:35;;;;;;;4.63;0.47;;;11.10;99.90;;;;;;4933686;29;20082;-84
2022/04/09 12:39:48;;;;;;;;;;;;;;;;;;;;;
2022/04/09 12:42:59;;;;;;;;;;;;;;;;;;;;;
2022/04/09 12:46:16;;;;;;;;;;;;;;;;;;;;;
2022/04/09 12:49:14;;;;;;;7.05;1.17;;;10.80;99.90;;;;;;4917929;29;20059;-85
2022/04/09 12:52:19;;;;;;;7.40;0.50;;;10.80;99.90;;;;;;4918736;29;20059;-85
2022/04/09 12:55:50;;;;;;;7.72;0.65;;;10.80;99.90;;;;;;4935338;29;20132;-84
2022/04/09 12:59:24;;;;;;;1.80;0.40;;;11.00;99.90;;;;;;4934971;29;20087;-84
2022/04/09 13:02:40;;;;;;;;;;;;;;;;;;;;;
2022/04/09 13:06:02;;;;;;;;;;;;;;;;;;;;;
2022/04/09 13:09:09;;;;;;;2.75;0.47;;;11.20;99.90;;;;;;4935339;29;20073;-84
2022/04/09 13:12:34;;;;;;;;;;;;;;;;;;;;;
2022/04/09 13:15:36;;;;;;;2.88;0.52;;;11.80;99.90;;;;;;4930721;29;20046;-85
2022/04/09 13:18:40;;;;;;;2.28;0.38;;;12.20;99.90;;;;;;4935172;29;20102;-84
2022/04/09 13:21:47;;;;;;;3.40;0.50;;;12.10;99.90;;;;;;4934220;29;20086;-85
2022/04/09 13:24:35;;;;;;;4.15;0.45;;;11.90;99.90;;;;;;4934198;29;20075;-86
2022/04/09 13:27:35;;;;;;;4.40;0.52;;;12.10;99.90;;;;;;4933976;29;20062;-85
2022/04/09 13:30:37;;;;;;;3.42;0.38;;;11.80;99.90;;;;;;4928457;29;20052;-85
2022/04/09 13:33:46;;;;;;;4.53;0.60;;;11.40;99.90;;;;;;4935167;29;20044;-85
2022/04/09 13:37:05;;;;;;;;;;;;;;;;;;;;;
2022/04/09 13:40:09;;;;;;;1.75;0.40;;;11.30;99.90;;;;;;4934925;29;20139;-85
2022/04/09 13:43:01;;;;;;;3.13;0.40;;;11.20;99.90;;;;;;4901393;29;20582;-85
2022/04/09 13:45:47;;;;;;;1.63;0.50;;;10.90;99.90;;;;;;4934347;29;20463;-86
2022/04/09 13:48:57;;;;;;;3.40;1.02;;;10.90;99.90;;;;;;4918237;29;20071;-85
2022/04/09 13:51:57;;;;;;;4.93;0.38;;;10.90;99.90;;;;;;4932001;29;20051;-84
2022/04/09 13:55:12;;;;;;;2.88;0.20;;;10.80;99.90;;;;;;4934911;29;20135;-85
2022/04/09 13:58:19;;;;;;;0.80;0.30;;;10.80;99.90;;;;;;4917972;29;20071;-85
2022/04/09 14:01:20;;;;;;;4.38;0.80;;;11.00;99.90;;;;;;4937942;28;20051;-85
2022/04/09 14:04:38;;;;;;;;;;;;;;;;;;;;;
2022/04/09 14:07:48;;;;;;;3.60;0.63;;;11.40;99.90;;;;;;4957738;28;20115;-83
2022/04/09 14:11:07;;;;;;;3.13;0.55;;;11.60;99.90;;;;;;4956755;28;20039;-84
2022/04/09 14:14:05;;;;;;;5.35;0.90;;;11.70;99.90;;;;;;4956223;28;20055;-85
2022/04/09 14:17:07;;;;;;;4.28;0.55;;;11.70;99.90;;;;;;4928387;29;20059;-85
2022/04/09 14:20:42;;;;;;;;;;;;;;;;;;;;;
2022/04/09 14:23:48;;;;;;;;;;;;;;;;;;;;;
2022/04/09 14:27:01;;;;;;;;;;;;;;;;;;;;;
2022/04/09 14:30:10;;;;;;;1.35;0.40;;;10.30;99.90;;;;;;4958700;28;20498;-84
2022/04/09 14:33:28;;;;;;;;;;;;;;;;;;;;;
2022/04/09 14:36:30;;;;;;;1.55;0.40;;;9.80;99.90;;;;;;4956632;28;20445;-84
2022/04/09 14:39:33;;;;;;;1.00;0.30;;;9.30;99.90;;;;;;4953556;29;20058;-84
2022/04/09 15:09:18;;;;;;;3.08;0.52;;;9.40;99.90;;;;;;4954592;28;20066;-86
2022/04/09 15:12:09;;;;;;;;;;;9.20;99.90;;;;;;4946641;28;20054;-85
2022/04/09 15:14:36;;;;;;;2.55;0.60;;;9.40;99.90;;;;;;4969966;28;19926;-83
2022/04/09 15:17:02;;;;;;;3.28;0.60;;;9.50;99.90;;;;;;4948173;28;20039;-83
2022/04/09 15:19:31;;;;;;;7.55;0.63;;;9.60;99.90;;;;;;4966883;28;20039;-84
2022/04/09 15:22:00;;;;;;;8.27;1.38;;;9.50;99.90;;;;;;4932974;28;20039;-84
2022/04/09 15:24:31;;;;;;;6.50;1.27;;;9.60;99.90;;;;;;4961712;28;20082;-84
2022/04/09 15:27:10;;;;;;;3.50;0.52;;;9.20;99.90;;;;;;4938532;28;20054;-84
2022/04/09 15:29:42;;;;;;;2.05;0.50;;;9.20;99.90;;;;;;4954866;28;20054;-85
2022/04/09 15:32:15;;;;;;;2.85;0.50;;;8.90;99.90;;;;;;4947170;28;20445;-85
2022/04/09 15:34:50;;;;;;;2.22;0.45;;;8.80;99.90;;;;;;4955547;28;20096;-85
2022/04/09 15:37:25;;;;;;;2.55;0.60;;;8.40;99.90;;;;;;4963475;28;20074;-84
2022/04/09 15:39:55;;;;;;;3.95;0.63;;;8.40;99.90;;;;;;4937977;28;20563;-84
2022/04/09 15:42:26;;;;;;;5.47;0.90;;;8.40;99.90;;;;;;4938100;28;20055;-84
2022/04/09 15:44:56;;;;;;;2.45;0.55;;;8.20;99.90;;;;;;4948476;28;20047;-85
2022/04/09 15:47:25;;;;;;;3.17;0.60;;;8.20;99.90;;;;;;4965018;28;20125;-84
2022/04/09 15:50:05;;;;;;;3.33;0.43;;;7.60;99.90;;;;;;4948874;28;20043;-85
2022/04/09 15:52:39;;;;;;;2.28;0.43;;;8.00;99.90;;;;;;4952433;29;20450;-84
2022/04/09 15:55:13;;;;;;;6.32;0.63;;;8.00;99.90;;;;;;4968320;28;20102;-83
2022/04/09 15:57:46;;;;;;;5.47;0.70;;;8.10;99.90;;;;;;4955194;28;20055;-85
2022/04/09 16:00:22;;;;;;;7.30;0.98;;;8.20;99.90;;;;;;4948093;28;20046;-85
2022/04/09 16:02:53;;;;;;;4.82;0.70;;;8.10;99.90;;;;;;4949082;28;20047;-84
2022/04/09 16:05:39;;;;;;;5.50;0.70;;;8.20;99.90;;;;;;4960280;28;20059;-84
2022/04/09 16:08:12;;;;;;;5.47;1.13;;;8.10;99.90;;;;;;4956994;28;20086;-84
2022/04/09 16:10:48;;;;;;;5.88;1.08;;;8.20;99.90;;;;;;4945059;29;20529;-85
2022/04/09 16:13:22;;;;;;;7.55;0.85;;;8.50;99.90;;;;;;4963105;28;20039;-84
2022/04/09 16:15:52;;;;;;;5.50;1.33;;;8.90;99.90;;;;;;4946614;29;20051;-84
2022/04/09 16:18:24;;;;;;;2.17;0.50;;;8.30;99.90;;;;;;4967866;28;20039;-90
2022/04/09 16:20:54;;;;;;;3.33;0.68;;;8.30;99.90;;;;;;4969638;28;20137;-84
2022/04/09 16:23:21;;;;;;;3.13;0.50;;;8.10;99.90;;;;;;4973366;28;20093;-85
2022/04/09 16:25:49;;;;;;;3.45;0.50;;;7.90;99.90;;;;;;4947012;28;20413;-85
2022/04/09 16:28:23;;;;;;;4.18;0.88;;;7.80;99.90;;;;;;4937960;29;20043;-85
2022/04/09 16:30:54;;;;;;;2.53;0.93;;;7.50;99.90;;;;;;4942094;28;20078;-85
2022/04/09 16:33:27;;;;;;;5.82;1.23;;;7.30;99.90;;;;;;4948707;28;20105;-85
2022/04/09 16:35:54;;;;;;;2.92;0.80;;;7.30;99.90;;;;;;4964908;28;20078;-85
2022/04/09 16:38:23;;;;;;;3.67;1.00;;;7.20;99.90;;;;;;4938212;29;20122;-84
2022/04/09 16:40:50;;;;;;;4.15;0.73;;;7.20;99.90;;;;;;4953482;28;20039;-84
2022/04/09 16:43:22;;;;;;;2.47;0.47;;;7.30;99.90;;;;;;4936470;28;20043;-84
2022/04/09 16:45:49;;;;;;;2.58;0.40;;;7.10;99.90;;;;;;4921667;29;20054;-84
2022/04/09 16:48:22;;;;;;;3.85;0.60;;;7.10;99.90;;;;;;4956492;28;20109;-83
2022/04/09 16:50:51;;;;;;;3.53;0.63;;;7.30;99.90;;;;;;4963883;28;20043;-83
2022/04/09 16:53:18;;;;;;;3.17;0.70;;;7.30;99.90;;;;;;4964267;28;20090;-83
2022/04/09 16:55:52;;;;;;;7.45;1.00;;;7.30;99.90;;;;;;4964833;28;20039;-86
2022/04/09 16:58:25;;;;;;;2.70;0.98;;;7.30;99.90;;;;;;4962227;28;20039;-85
2022/04/09 17:00:52;;;;;;;4.40;0.82;;;7.00;99.90;;;;;;4962072;28;20051;-87
2022/04/09 17:03:21;;;;;;;3.83;0.40;;;7.40;99.90;;;;;;4962512;28;20062;-83
2022/04/09 17:05:52;;;;;;;6.13;0.60;;;7.50;99.90;;;;;;4961726;28;20047;-84
2022/04/09 17:08:22;;;;;;;5.10;0.70;;;7.30;99.90;;;;;;4954341;23;20513;-85
2022/04/09 17:10:57;;;;;;;3.40;0.50;;;7.30;99.90;;;;;;4938076;28;20043;-84
2022/04/09 17:13:35;;;;;;;2.47;0.63;;;7.40;99.90;;;;;;4946401;28;20031;-84
2022/04/09 17:16:22;;;;;;;4.53;0.50;;;7.40;99.90;;;;;;4945428;28;20125;-82
2022/04/09 17:19:05;;;;;;;4.47;0.77;;;7.20;99.90;;;;;;4936424;29;20134;-84
2022/04/09 17:21:56;;;;;;;5.57;0.73;;;7.20;99.90;;;;;;4937456;29;20134;-85
2022/04/09 17:24:51;;;;;;;6.30;0.90;;;7.30;99.90;;;;;;4953927;28;20526;-84
2022/04/09 17:27:52;;;;;;;2.78;0.60;;;7.20;99.90;;;;;;4937236;28;20205;-83
2022/04/09 17:31:07;;;;;;;;;;;;;;;;;;;;;
2022/04/09 17:34:07;;;;;;;5.55;0.77;;;6.70;99.90;;;;;;4953819;28;20486;-85
2022/04/09 17:37:04;;;;;;;;;;;;;;;;;;;;;
2022/04/09 17:40:16;;;;;;;;;;;;;;;;;;;;;
2022/04/09 17:43:29;;;;;;;4.45;0.80;;;6.80;99.90;;;;;;4957358;28;20058;-84
2022/04/09 17:46:10;;;;;;;2.40;1.10;;;6.90;99.90;;;;;;4944568;29;20047;-85
2022/04/09 17:52:20;;;;;;;5.53;0.90;;;6.60;99.90;;;;;;4965577;28;20069;-83
2022/04/09 17:55:32;;;;;;;5.10;0.70;;;6.40;99.90;;;;;;4964807;28;20423;-84
2022/04/09 17:58:03;;;;;;;4.95;0.75;;;6.50;99.90;;;;;;4974485;28;20061;-82
2022/04/09 18:01:04;;;;;;;;;;;;;;;;;;;;;
2022/04/09 18:03:40;;;;;;;4.75;0.95;;;6.30;99.90;;;;;;4953803;29;20066;-87
2022/04/09 18:06:13;;;;;;;3.40;0.68;;;6.20;99.90;;;;;;4950702;28;20039;-86
2022/04/09 18:08:46;;;;;;;2.70;0.70;;;6.00;99.90;;;;;;4965244;28;20177;-84
2022/04/09 18:11:24;;;;;;;3.40;0.60;;;5.90;99.90;;;;;;4943812;29;20050;-85
2022/04/09 18:14:10;;;;;;;2.08;0.68;;;5.90;99.90;;;;;;4922923;29;20051;-85
2022/04/09 18:16:43;;;;;;;8.70;1.63;;;6.10;99.90;;;;;;4956829;28;20511;-84
2022/04/09 18:19:19;;;;;;;6.03;1.38;;;6.10;99.90;;;;;;4957474;28;20035;-84
2022/04/09 18:22:01;;;;;;;4.38;0.90;;;6.00;99.90;;;;;;4956700;28;20043;-85
2022/04/09 18:24:38;;;;;;;6.53;2.95;;;5.70;99.90;;;;;;4933637;29;20106;-84
2022/04/09 18:27:18;;;;;;;5.22;1.15;;;5.40;99.90;;;;;;4949762;28;20552;-84
2022/04/09 18:29:54;;;;;;;5.07;0.60;;;5.60;99.90;;;;;;4944332;28;20047;-83
2022/04/09 18:32:29;;;;;;;3.35;0.50;;;5.50;99.90;;;;;;4940128;29;20062;-83
2022/04/09 18:35:20;;;;;;;2.65;0.50;;;5.20;99.90;;;;;;4956081;28;20051;-83
2022/04/09 18:37:57;;;;;;;4.00;0.63;;;5.00;99.90;;;;;;4956589;28;20054;-83
2022/04/09 18:40:38;;;;;;;2.20;0.52;;;4.90;99.90;;;;;;4956613;28;20049;-84
2022/04/09 18:43:16;;;;;;;4.45;0.88;;;4.80;99.90;;;;;;4955883;28;20106;-82
2022/04/09 18:45:54;;;;;;;6.00;0.90;;;4.70;99.90;;;;;;4957697;28;20490;-83
2022/04/09 18:48:28;;;;;;;1.75;0.70;;;5.10;99.90;;;;;;4956660;28;20062;-83
2022/04/09 18:51:36;;;;;;;4.63;0.70;;;4.70;99.90;;;;;;4954967;28;20084;-83
2022/04/09 18:54:14;;;;;;;4.22;0.73;;;4.70;99.90;;;;;;4960182;28;20087;-83
2022/04/09 18:56:58;;;;;;;4.80;0.80;;;5.40;99.90;;;;;;4946021;29;20047;-84
2022/04/09 18:59:34;;;;;;;4.88;0.63;;;4.70;99.90;;;;;;4937250;28;20517;-84
2022/04/09 19:02:26;;;;;;;;;;;;;;;;;;;;;
2022/04/09 19:05:48;;;;;;;13.77;0.90;;;4.80;99.90;;;;;;4953761;28;20046;-82
2022/04/09 19:08:31;;;;;;;5.75;0.93;;;4.90;99.90;;;;;;4949473;28;20070;-82
2022/04/09 19:11:01;;;;;;;5.60;1.20;;;4.90;99.90;;;;;;4958624;28;20035;-85
2022/04/09 19:14:13;;;;;;;8.48;0.98;;;5.00;99.90;;;;;;4957054;28;20099;-83
2022/04/09 19:17:00;;;;;;;2.58;0.80;;;5.10;99.90;;;;;;4937938;28;20059;-84
2022/04/09 19:19:36;;;;;;;6.75;0.95;;;4.90;99.90;;;;;;4938961;29;20490;-84
2022/04/09 19:22:16;;;;;;;6.57;0.75;;;4.90;99.90;;;;;;4955838;28;20075;-85
2022/04/09 19:24:48;;;;;;;3.40;0.65;;;4.70;99.90;;;;;;4968661;28;20117;-84
2022/04/09 19:27:22;;;;;;;7.47;1.08;;;4.70;99.90;;;;;;4941028;28;20041;-86
2022/04/09 19:30:01;;;;;;;12.95;1.48;;;4.80;99.90;;;;;;4965411;28;20081;-84
2022/04/09 19:32:54;;;;;;;5.05;0.68;;;4.90;99.90;;;;;;4955915;28;20054;-86
2022/04/09 19:35:23;;;;;;;10.00;1.15;;;5.00;99.90;;;;;;4962226;28;20402;-81
2022/04/09 19:37:52;;;;;;;5.80;0.75;;;5.00;99.90;;;;;;4938822;29;20051;-82
2022/04/09 19:40:20;;;;;;;5.43;0.75;;;5.10;99.90;;;;;;4938736;29;20105;-82
2022/04/09 19:42:47;;;;;;;2.17;0.75;;;4.90;99.90;;;;;;4955514;28;20619;-81
2022/04/09 19:45:23;;;;;;;5.85;1.80;;;4.70;99.90;;;;;;4938292;28;20498;-83
2022/04/09 19:47:51;;;;;;;3.80;0.70;;;4.60;99.90;;;;;;4940653;28;20379;-83
2022/04/09 19:50:20;;;;;;;2.60;1.05;;;5.50;99.90;;;;;;4963480;28;20097;-82
2022/04/09 19:52:49;;;;;;;4.80;1.00;;;4.40;99.90;;;;;;4955765;28;20504;-82
2022/04/09 19:55:17;;;;;;;5.30;0.65;;;4.30;99.90;;;;;;4937304;28;20107;-82
2022/04/09 19:57:44;;;;;;;2.30;0.40;;;4.20;99.90;;;;;;4950860;29;20058;-81
2022/04/09 20:00:11;;;;;;;2.92;0.50;;;4.10;99.90;;;;;;4954227;28;20045;-83
2022/04/09 20:02:43;;;;;;;2.42;0.32;;;4.10;99.90;;;;;;4955635;28;20731;-82
2022/04/09 20:05:10;;;;;;;2.42;0.40;;;4.00;99.90;;;;;;4957565;28;20039;-82
2022/04/09 20:07:39;;;;;;;2.25;0.50;;;3.90;99.90;;;;;;4972168;28;20063;-82